M I D A S
Marine Information and Data Acquisition System
Tripno 1147 of the Zeeleeuw from 2006-08-17 06:46:29 to 2006-08-17 13:01:26
Back to CruiseResearch ActivitiesStationsMapUnderway DataData graphs

EquipmentUnitsComments
TimeDGPSUTC
LatitudeDGPSDM.mWGS84
LongitudeDGPSDM.mWGS84
SpeedMeteo Stationm/sRelative wind speed
DirectionMeteo StationdegRelative wind direction
TemperatureMeteo Stationdeg CelciusAir temperature
PressureMeteo StationPaAtmospheric pressure
HumidityMeteo Station%Relative humidity
Missing or incorrect values are displayed as -999
Metereological data collected by the RV Zeeleeuw from 2006-08-17 06:44:46 to 2006-08-17 13:12:28
                                                                                    Next 1000 lines
Time Latitude Longitude Speed Direction Temperature Pressure Humidity
2006-08-17 06:44:56 51°13.601 2°56.094 3.2 9 16.3 100170 96
2006-08-17 06:45:01 51°13.601 2°56.091 3 13 16.3 100170 96
2006-08-17 06:45:06 51°13.602 2°56.088 3.1 12 16.3 100170 96
2006-08-17 06:45:11 51°13.603 2°56.084 3 14 16.3 100170 96
2006-08-17 06:45:16 51°13.604 2°56.078 2.8 26 16.3 100170 96
2006-08-17 06:45:21 51°13.605 2°56.072 2.4 23 16.3 100170 96
2006-08-17 06:45:26 51°13.607 2°56.065 2.6 14 16.3 100170 96
2006-08-17 06:45:31 51°13.608 2°56.058 2.7 15 16.3 100170 96
2006-08-17 06:45:36 51°13.609 2°56.051 3.3 9 16.3 100180 96
2006-08-17 06:45:42 51°13.611 2°56.042 1.9 14 16.3 100180 96
2006-08-17 06:45:46 51°13.612 2°56.036 3.1 11 16.3 100170 96
2006-08-17 06:45:52 51°13.613 2°56.027 3.1 11 16.3 100170 96
2006-08-17 06:45:56 51°13.614 2°56.021 3.3 8 16.3 100170 96
2006-08-17 06:46:02 51°13.616 2°56.011 2.7 18 16.3 100170 96
2006-08-17 06:46:06 51°13.618 2°56.005 2.5 12 16.3 100170 96
2006-08-17 06:46:11 51°13.62 2°55.997 1.9 7 16.3 100170 96
2006-08-17 06:46:16 51°13.622 2°55.989 1.7 4 16.3 100170 96
2006-08-17 06:46:22 51°13.624 2°55.979 2 10 16.3 100170 96
2006-08-17 06:46:26 51°13.626 2°55.972 1.9 8 16.3 100170 96
2006-08-17 06:46:31 51°13.629 2°55.963 1.1 28 16.3 100170 96
2006-08-17 06:46:36 51°13.631 2°55.955 1.1 31 16.3 100170 96
2006-08-17 06:46:42 51°13.635 2°55.944 1.3 33 16.3 100170 96
2006-08-17 06:46:46 51°13.638 2°55.937 1.1 28 16.3 100170 96
2006-08-17 06:46:51 51°13.641 2°55.928 2 34 16.3 100170 96
2006-08-17 06:46:56 51°13.645 2°55.919 2.1 21 16.3 100180 96
2006-08-17 06:47:02 51°13.649 2°55.909 1.7 21 16.3 100180 96
2006-08-17 06:47:06 51°13.652 2°55.902 1.2 25 16.3 100180 96
2006-08-17 06:47:11 51°13.656 2°55.894 1.9 10 16.3 100180 96
2006-08-17 06:47:16 51°13.659 2°55.887 1.8 7 16.3 100180 96
2006-08-17 06:47:21 51°13.663 2°55.879 1.7 7 16.3 100180 96
2006-08-17 06:47:26 51°13.667 2°55.871 1.5 -999 16.3 100170 96
2006-08-17 06:47:31 51°13.67 2°55.863 1.4 357 16.3 100170 96
2006-08-17 06:47:36 51°13.674 2°55.854 1.3 2 16.3 100180 96
2006-08-17 06:47:41 51°13.678 2°55.845 1.5 19 16.3 100180 96
2006-08-17 06:47:46 51°13.683 2°55.837 1.6 18 16.3 100170 96
2006-08-17 06:47:52 51°13.687 2°55.827 1.2 17 16.3 100170 96
2006-08-17 06:47:56 51°13.69 2°55.821 1 11 16.3 100180 96
2006-08-17 06:48:01 51°13.693 2°55.812 1.1 4 16.3 100180 96
2006-08-17 06:48:06 51°13.697 2°55.804 1.5 5 16.3 100170 96
2006-08-17 06:48:12 51°13.701 2°55.794 1.7 11 16.3 100170 96
2006-08-17 06:48:16 51°13.703 2°55.787 1.8 10 16.3 100180 96
2006-08-17 06:48:22 51°13.706 2°55.777 1.8 23 16.3 100180 96
2006-08-17 06:48:26 51°13.708 2°55.771 1.8 28 16.3 100180 96
2006-08-17 06:48:31 51°13.71 2°55.764 2.1 23 16.3 100180 96
2006-08-17 06:48:36 51°13.712 2°55.756 2.2 26 16.3 100170 96
2006-08-17 06:48:42 51°13.715 2°55.747 2.1 12 16.3 100170 96
2006-08-17 06:48:46 51°13.716 2°55.741 2 18 16.3 100180 96
2006-08-17 06:48:51 51°13.717 2°55.734 2.4 13 16.3 100180 96
2006-08-17 06:48:56 51°13.719 2°55.728 2.7 20 16.3 100170 96
2006-08-17 06:49:02 51°13.72 2°55.72 1.8 27 16.3 100170 96
2006-08-17 06:49:06 51°13.721 2°55.716 1.7 33 16.4 100170 96
2006-08-17 06:49:11 51°13.721 2°55.713 1.7 17 16.4 100170 96
2006-08-17 06:49:16 51°13.722 2°55.711 1.9 15 16.3 100170 96
2006-08-17 06:49:21 51°13.723 2°55.712 3.4 23 16.3 100170 96
2006-08-17 06:49:26 51°13.724 2°55.714 3.3 24 16.3 100170 96
2006-08-17 06:49:31 51°13.726 2°55.717 2.6 35 16.3 100170 96
2006-08-17 06:49:36 51°13.727 2°55.719 2.9 31 16.3 100170 96
2006-08-17 06:49:41 51°13.729 2°55.721 3.5 36 16.3 100170 96
2006-08-17 06:49:46 51°13.731 2°55.723 2.9 34 16.3 100170 96
2006-08-17 06:49:50 51°13.732 2°55.724 2.9 35 16.3 100170 96
2006-08-17 06:49:56 51°13.733 2°55.725 3 36 16.3 100170 96
2006-08-17 06:50:01 51°13.733 2°55.725 3.1 41 16.3 100170 96
2006-08-17 06:50:05 51°13.733 2°55.724 3 40 16.3 100170 96
2006-08-17 06:50:11 51°13.731 2°55.723 3 45 16.3 100170 96
2006-08-17 06:50:16 51°13.73 2°55.721 3.1 22 16.3 100170 96
2006-08-17 06:50:21 51°13.728 2°55.72 4.1 40 16.3 100170 96
2006-08-17 06:50:26 51°13.726 2°55.718 5.1 30 16.3 100170 96
2006-08-17 06:50:32 51°13.723 2°55.716 4.6 42 16.3 100170 96
2006-08-17 06:50:36 51°13.722 2°55.716 5.2 45 16.3 100170 96
2006-08-17 06:50:42 51°13.72 2°55.714 3.9 34 16.3 100170 96
2006-08-17 06:50:46 51°13.719 2°55.714 4.2 28 16.3 100170 96
2006-08-17 06:50:51 51°13.72 2°55.714 3.3 34 16.3 100170 96
2006-08-17 06:50:56 51°13.721 2°55.713 3.5 20 16.3 100170 96
2006-08-17 06:51:02 51°13.722 2°55.713 3 35 16.3 100170 96
2006-08-17 06:51:06 51°13.724 2°55.712 3 27 16.3 100170 96
2006-08-17 06:51:11 51°13.725 2°55.712 2.2 38 16.3 100170 96
2006-08-17 06:51:16 51°13.728 2°55.711 2.4 24 16.3 100180 96
2006-08-17 06:51:22 51°13.73 2°55.71 3 36 16.3 100180 96
2006-08-17 06:51:26 51°13.732 2°55.708 2 30 16.3 100170 96
2006-08-17 06:51:30 51°13.734 2°55.707 2 41 16.3 100170 96
2006-08-17 06:51:36 51°13.738 2°55.705 2.5 22 16.4 100180 96
2006-08-17 06:51:41 51°13.741 2°55.703 2.4 38 16.4 100180 96
2006-08-17 06:51:47 51°13.745 2°55.7 2.9 28 16.4 100180 96
2006-08-17 06:51:50 51°13.748 2°55.699 2.6 34 16.4 100180 96
2006-08-17 06:51:56 51°13.752 2°55.695 2.7 27 16.4 100180 96
2006-08-17 06:52:01 51°13.756 2°55.693 2.4 37 16.4 100180 96
2006-08-17 06:52:06 51°13.761 2°55.689 2.5 23 16.4 100180 96
2006-08-17 06:52:11 51°13.765 2°55.686 2.3 41 16.4 100180 96
2006-08-17 06:52:16 51°13.77 2°55.683 2.4 22 16.4 100180 96
2006-08-17 06:52:21 51°13.775 2°55.679 1.5 32 16.4 100180 96
2006-08-17 06:52:26 51°13.779 2°55.675 1.1 28 16.4 100180 96
2006-08-17 06:52:31 51°13.785 2°55.671 1.7 31 16.4 100180 96
2006-08-17 06:52:36 51°13.79 2°55.667 1.6 21 16.4 100180 96
2006-08-17 06:52:41 51°13.795 2°55.663 0.9 33 16.4 100180 96
2006-08-17 06:52:46 51°13.8 2°55.659 1.2 26 16.4 100180 96
2006-08-17 06:52:51 51°13.806 2°55.655 1.3 37 16.4 100180 96
2006-08-17 06:52:56 51°13.811 2°55.65 1.1 24 16.4 100180 96
2006-08-17 06:53:01 51°13.816 2°55.646 1 31 16.4 100180 96
2006-08-17 06:53:06 51°13.822 2°55.642 0.9 27 16.4 100180 96
2006-08-17 06:53:11 51°13.828 2°55.638 1.2 32 16.4 100180 96
2006-08-17 06:53:16 51°13.834 2°55.633 1.4 22 16.4 100180 96
2006-08-17 06:53:21 51°13.84 2°55.629 1.8 33 16.4 100180 96
2006-08-17 06:53:26 51°13.845 2°55.625 2.3 22 16.4 100180 96
2006-08-17 06:53:31 51°13.851 2°55.62 2.6 39 16.4 100180 96
2006-08-17 06:53:35 51°13.856 2°55.616 2.4 27 16.4 100170 96
2006-08-17 06:53:41 51°13.863 2°55.611 2 31 16.4 100170 96
2006-08-17 06:53:46 51°13.869 2°55.606 1.9 27 16.5 100180 96
2006-08-17 06:53:51 51°13.875 2°55.601 2.8 40 16.5 100180 96
2006-08-17 06:53:56 51°13.881 2°55.596 3 27 16.5 100180 96
2006-08-17 06:54:01 51°13.888 2°55.592 2.3 40 16.5 100180 96
2006-08-17 06:54:06 51°13.894 2°55.587 2 22 16.4 100180 96
2006-08-17 06:54:11 51°13.9 2°55.582 1.1 34 16.4 100180 96
2006-08-17 06:54:16 51°13.906 2°55.577 1.4 27 16.4 100180 96
2006-08-17 06:54:21 51°13.913 2°55.572 1.3 37 16.4 100180 96
2006-08-17 06:54:26 51°13.919 2°55.567 1.1 26 16.5 100180 96
2006-08-17 06:54:31 51°13.926 2°55.563 1.4 38 16.5 100180 96
2006-08-17 06:54:36 51°13.932 2°55.558 1.8 26 16.5 100180 96
2006-08-17 06:54:41 51°13.938 2°55.553 1.8 37 16.5 100180 96
2006-08-17 06:54:46 51°13.945 2°55.548 1.3 20 16.5 100180 96
2006-08-17 06:54:51 51°13.951 2°55.543 1.3 32 16.5 100180 96
2006-08-17 06:54:56 51°13.958 2°55.539 1.1 28 16.5 100180 96
2006-08-17 06:55:00 51°13.963 2°55.535 1.7 35 16.5 100180 96
2006-08-17 06:55:06 51°13.971 2°55.53 1.7 23 16.5 100180 96
2006-08-17 06:55:10 51°13.976 2°55.526 1.7 39 16.5 100180 96
2006-08-17 06:55:16 51°13.984 2°55.52 1.4 20 16.5 100180 96
2006-08-17 06:55:21 51°13.99 2°55.515 1.1 264 16.5 100180 96
2006-08-17 06:55:26 51°13.997 2°55.511 1.1 266 16.5 100180 96
2006-08-17 06:55:31 51°14.003 2°55.506 0.9 264 16.5 100180 96
2006-08-17 06:55:35 51°14.008 2°55.502 0.7 269 16.5 100180 96
2006-08-17 06:55:41 51°14.016 2°55.496 0.6 54 16.5 100180 96
2006-08-17 06:55:46 51°14.023 2°55.492 0.6 28 16.5 100180 96
2006-08-17 06:55:50 51°14.028 2°55.488 0.5 24 16.5 100180 96
2006-08-17 06:55:56 51°14.036 2°55.482 0.4 18 16.5 100180 96
2006-08-17 06:56:01 51°14.043 2°55.476 0.4 32 16.5 100180 96
2006-08-17 06:56:06 51°14.05 2°55.471 0.5 28 16.5 100170 96
2006-08-17 06:56:10 51°14.056 2°55.467 0.6 40 16.5 100170 96
2006-08-17 06:56:16 51°14.065 2°55.46 0.5 21 16.5 100170 96
2006-08-17 06:56:21 51°14.073 2°55.454 0.5 60 16.5 100170 96
2006-08-17 06:56:26 51°14.081 2°55.448 0.5 21 16.5 100180 96
2006-08-17 06:56:31 51°14.09 2°55.442 0.3 311 16.5 100180 96
2006-08-17 06:56:36 51°14.098 2°55.435 0.4 351 16.5 100180 96
2006-08-17 06:56:41 51°14.106 2°55.428 0.3 351 16.5 100180 96
2006-08-17 06:56:46 51°14.115 2°55.421 0.3 321 16.5 100180 96
2006-08-17 06:56:51 51°14.123 2°55.414 0.7 35 16.5 100180 96
2006-08-17 06:56:56 51°14.132 2°55.406 0.4 18 16.5 100170 96
2006-08-17 06:57:01 51°14.141 2°55.398 0.6 306 16.5 100170 96
2006-08-17 06:57:06 51°14.149 2°55.391 0.8 21 16.5 100170 96
2006-08-17 06:57:11 51°14.158 2°55.383 1 245 16.5 100170 96
2006-08-17 06:57:16 51°14.167 2°55.375 1 247 16.5 100170 96
2006-08-17 06:57:21 51°14.175 2°55.367 0.9 307 16.5 100170 96
2006-08-17 06:57:26 51°14.184 2°55.358 0.9 22 16.5 100170 96
2006-08-17 06:57:31 51°14.193 2°55.349 1.5 302 16.5 100170 96
2006-08-17 06:57:35 51°14.199 2°55.341 1.8 22 16.5 100180 96
2006-08-17 06:57:41 51°14.209 2°55.329 1.8 301 16.5 100180 96
2006-08-17 06:57:46 51°14.218 2°55.32 1.3 26 16.5 100180 96
2006-08-17 06:57:51 51°14.226 2°55.309 1 302 16.5 100180 96
2006-08-17 06:57:56 51°14.234 2°55.299 1.3 22 16.5 100180 96
2006-08-17 06:58:01 51°14.243 2°55.288 1.9 237 16.5 100180 96
2006-08-17 06:58:06 51°14.251 2°55.277 1.8 245 16.5 100170 96
2006-08-17 06:58:11 51°14.259 2°55.265 2.2 301 16.5 100170 96
2006-08-17 06:58:16 51°14.267 2°55.253 2.4 259 16.5 100170 96
2006-08-17 06:58:21 51°14.275 2°55.24 2.4 38 16.5 100170 96
2006-08-17 06:58:26 51°14.283 2°55.227 2.5 20 16.5 100170 96
2006-08-17 06:58:31 51°14.291 2°55.214 2.5 306 16.5 100170 96
2006-08-17 06:58:36 51°14.299 2°55.2 2.1 28 16.5 100180 96
2006-08-17 06:58:40 51°14.305 2°55.19 2 307 16.5 100180 96
2006-08-17 06:58:46 51°14.315 2°55.173 2 28 16.5 100180 96
2006-08-17 06:58:51 51°14.323 2°55.16 1.9 308 16.5 100180 96
2006-08-17 06:58:56 51°14.331 2°55.146 2.1 27 16.6 100180 96
2006-08-17 06:59:01 51°14.34 2°55.131 2.6 301 16.6 100180 96
2006-08-17 06:59:06 51°14.349 2°55.116 2.5 26 16.5 100180 96
2006-08-17 06:59:11 51°14.357 2°55.1 3.1 31 16.5 100180 96
2006-08-17 06:59:16 51°14.365 2°55.083 3 22 16.6 100170 96
2006-08-17 06:59:21 51°14.372 2°55.066 3.8 308 16.6 100170 96
2006-08-17 06:59:25 51°14.378 2°55.052 3.2 21 16.5 100180 96
2006-08-17 06:59:31 51°14.388 2°55.031 3 308 16.5 100180 96
2006-08-17 06:59:36 51°14.395 2°55.013 2.4 22 16.6 100180 95
2006-08-17 06:59:41 51°14.404 2°54.996 2 303 16.6 100180 95
2006-08-17 06:59:46 51°14.412 2°54.978 2.4 23 16.5 100170 95
2006-08-17 06:59:51 51°14.419 2°54.959 2.7 307 16.5 100170 95
2006-08-17 06:59:56 51°14.427 2°54.941 3.1 22 16.5 100170 95
2006-08-17 07:00:00 51°14.435 2°54.927 2.4 308 16.5 100170 95
2006-08-17 07:00:06 51°14.446 2°54.906 1.6 252 16.5 100170 95
2006-08-17 07:00:11 51°14.457 2°54.891 1 306 16.5 100170 95
2006-08-17 07:00:15 51°14.467 2°54.879 0.9 32 16.5 100180 95
2006-08-17 07:00:21 51°14.481 2°54.863 0.9 40 16.5 100180 95
2006-08-17 07:00:25 51°14.491 2°54.852 1 323 16.5 100170 95
2006-08-17 07:00:31 51°14.506 2°54.836 1.8 307 16.5 100170 95
2006-08-17 07:00:36 51°14.519 2°54.823 1.1 349 16.5 100170 95
2006-08-17 07:00:41 51°14.532 2°54.811 0.8 348 16.5 100170 95
2006-08-17 07:00:46 51°14.545 2°54.798 0.7 341 16.5 100180 95
2006-08-17 07:00:51 51°14.558 2°54.786 1.1 350 16.5 100180 95
2006-08-17 07:00:56 51°14.572 2°54.775 1.6 350 16.5 100170 95
2006-08-17 07:01:01 51°14.585 2°54.763 2 326 16.5 100170 95
2006-08-17 07:01:06 51°14.599 2°54.752 1.7 330 16.5 100170 95
2006-08-17 07:01:10 51°14.61 2°54.743 1.8 331 16.5 100170 95
2006-08-17 07:01:16 51°14.626 2°54.729 2 333 16.5 100170 95
2006-08-17 07:01:21 51°14.64 2°54.718 1.9 335 16.5 100170 95
2006-08-17 07:01:26 51°14.654 2°54.707 1.6 324 16.6 100170 95
2006-08-17 07:01:31 51°14.668 2°54.696 1.9 330 16.6 100170 95
2006-08-17 07:01:36 51°14.682 2°54.684 1.6 330 16.6 100170 95
2006-08-17 07:01:41 51°14.695 2°54.672 1.4 304 16.6 100170 95
2006-08-17 07:01:46 51°14.708 2°54.659 1.6 316 16.6 100170 95
2006-08-17 07:01:51 51°14.72 2°54.645 2.2 237 16.6 100170 95
2006-08-17 07:01:56 51°14.732 2°54.63 2.3 28 16.6 100180 95
2006-08-17 07:02:01 51°14.744 2°54.615 2 304 16.6 100180 95
2006-08-17 07:02:06 51°14.756 2°54.599 2 22 16.6 100170 95
2006-08-17 07:02:11 51°14.768 2°54.584 2.2 309 16.6 100170 95
2006-08-17 07:02:16 51°14.779 2°54.568 2 23 16.6 100180 95
2006-08-17 07:02:21 51°14.791 2°54.552 2.6 301 16.6 100180 95
2006-08-17 07:02:26 51°14.803 2°54.535 2.8 28 16.6 100170 95
2006-08-17 07:02:31 51°14.815 2°54.519 3.6 304 16.6 100170 95
2006-08-17 07:02:36 51°14.827 2°54.502 3.2 27 16.6 100180 95
2006-08-17 07:02:41 51°14.839 2°54.486 3 237 16.6 100180 95
2006-08-17 07:02:46 51°14.852 2°54.469 3 21 16.6 100170 95
2006-08-17 07:02:50 51°14.862 2°54.455 3 241 16.6 100170 95
2006-08-17 07:02:56 51°14.876 2°54.434 3.3 29 16.6 100170 95
2006-08-17 07:03:01 51°14.889 2°54.417 2.8 35 16.6 100170 95
2006-08-17 07:03:06 51°14.901 2°54.4 3.1 26 16.6 100170 95
2006-08-17 07:03:10 51°14.911 2°54.385 3 40 16.6 100170 95
2006-08-17 07:03:16 51°14.924 2°54.362 3.2 22 16.6 100180 95
2006-08-17 07:03:21 51°14.934 2°54.342 3.9 306 16.6 100180 95
2006-08-17 07:03:26 51°14.944 2°54.321 3.7 28 16.6 100170 95
2006-08-17 07:03:31 51°14.954 2°54.301 4.5 237 16.6 100170 95
2006-08-17 07:03:36 51°14.963 2°54.279 5.2 23 16.6 100170 95
2006-08-17 07:03:41 51°14.972 2°54.258 5 304 16.6 100170 95
2006-08-17 07:03:46 51°14.981 2°54.236 4.5 19 16.6 100180 95
2006-08-17 07:03:51 51°14.989 2°54.214 4.4 240 16.6 100180 95
2006-08-17 07:03:56 51°14.997 2°54.191 4.2 19 16.6 100170 95
2006-08-17 07:04:01 51°15.006 2°54.169 3.7 243 16.6 100170 95
2006-08-17 07:04:05 51°15.012 2°54.151 3.9 20 16.6 100170 95
2006-08-17 07:04:11 51°15.022 2°54.123 3.9 242 16.6 100170 95
2006-08-17 07:04:16 51°15.03 2°54.101 3.7 245 16.6 100170 95
2006-08-17 07:04:21 51°15.038 2°54.078 5.1 242 16.6 100170 95
2006-08-17 07:04:25 51°15.044 2°54.06 4.9 28 16.6 100170 95
2006-08-17 07:04:31 51°15.054 2°54.032 4.4 306 16.6 100170 95
2006-08-17 07:04:36 51°15.062 2°54.009 4.7 21 16.6 100170 95
2006-08-17 07:04:41 51°15.07 2°53.986 4.8 33 16.6 100170 95
2006-08-17 07:04:45 51°15.077 2°53.968 4.5 24 16.6 100170 95
2006-08-17 07:04:51 51°15.087 2°53.94 4.1 305 16.6 100170 95
2006-08-17 07:04:55 51°15.093 2°53.922 5.1 22 16.6 100170 95
2006-08-17 07:05:01 51°15.103 2°53.895 4.1 241 16.6 100170 95
2006-08-17 07:05:06 51°15.111 2°53.871 4.4 27 16.6 100170 95
2006-08-17 07:05:11 51°15.119 2°53.848 4.8 240 16.6 100170 95
2006-08-17 07:05:16 51°15.128 2°53.826 4.3 28 16.6 100170 95
2006-08-17 07:05:21 51°15.137 2°53.803 4.5 248 16.6 100170 95
2006-08-17 07:05:26 51°15.146 2°53.781 4 248 16.7 100170 95
2006-08-17 07:05:31 51°15.156 2°53.759 4.4 309 16.7 100170 95
2006-08-17 07:05:36 51°15.165 2°53.737 4.5 246 16.7 100170 95
2006-08-17 07:05:41 51°15.175 2°53.715 4.1 309 16.7 100170 95
2006-08-17 07:05:45 51°15.183 2°53.698 3.5 243 16.7 100170 95
2006-08-17 07:05:51 51°15.195 2°53.672 2.2 304 16.7 100170 95
2006-08-17 07:05:56 51°15.205 2°53.651 3.3 22 16.7 100170 95
2006-08-17 07:06:01 51°15.215 2°53.63 3.5 307 16.7 100170 95
2006-08-17 07:06:06 51°15.225 2°53.608 3.7 245 16.7 100170 95
2006-08-17 07:06:11 51°15.234 2°53.586 4 244 16.7 100170 95
2006-08-17 07:06:16 51°15.244 2°53.565 3.7 24 16.7 100170 95
2006-08-17 07:06:21 51°15.254 2°53.544 3.7 301 16.7 100170 95
2006-08-17 07:06:26 51°15.264 2°53.522 3.8 23 16.7 100170 95
2006-08-17 07:06:31 51°15.273 2°53.501 4.5 234 16.7 100170 95
2006-08-17 07:06:36 51°15.283 2°53.479 4.3 22 16.7 100170 95
2006-08-17 07:06:41 51°15.293 2°53.458 4.9 234 16.7 100170 95
2006-08-17 07:06:46 51°15.302 2°53.436 5 27 16.7 100170 95
2006-08-17 07:06:50 51°15.309 2°53.419 4.9 309 16.7 100170 95
2006-08-17 07:06:56 51°15.32 2°53.393 4.5 26 16.7 100170 95
2006-08-17 07:07:01 51°15.329 2°53.371 4.5 237 16.7 100170 95
2006-08-17 07:07:06 51°15.337 2°53.348 5 23 16.7 100180 95
2006-08-17 07:07:11 51°15.345 2°53.326 5.3 279 16.7 100180 95
2006-08-17 07:07:15 51°15.351 2°53.307 4.8 29 16.7 100180 95
2006-08-17 07:07:21 51°15.36 2°53.28 4.9 237 16.7 100180 95
2006-08-17 07:07:26 51°15.367 2°53.256 5.1 27 16.7 100170 95
2006-08-17 07:07:31 51°15.374 2°53.233 5 302 16.7 100170 95
2006-08-17 07:07:36 51°15.38 2°53.209 5 21 16.7 100180 95
2006-08-17 07:07:41 51°15.386 2°53.186 4.8 306 16.7 100180 95
2006-08-17 07:07:46 51°15.392 2°53.162 4.6 25 16.7 100180 95
2006-08-17 07:07:51 51°15.398 2°53.138 4.9 303 16.7 100180 95
2006-08-17 07:07:56 51°15.404 2°53.114 4.9 23 16.7 100170 95
2006-08-17 07:08:01 51°15.41 2°53.09 5.2 306 16.7 100170 95
2006-08-17 07:08:06 51°15.416 2°53.066 5.1 26 16.7 100170 95
2006-08-17 07:08:11 51°15.421 2°53.042 5.6 284 16.7 100170 95
2006-08-17 07:08:16 51°15.428 2°53.019 5.3 27 16.7 100170 95
2006-08-17 07:08:21 51°15.435 2°52.995 5.2 238 16.7 100170 95
2006-08-17 07:08:26 51°15.441 2°52.972 4.7 27 16.7 100170 95
2006-08-17 07:08:31 51°15.449 2°52.949 5.5 241 16.7 100170 95
2006-08-17 07:08:36 51°15.456 2°52.926 5.3 26 16.7 100170 95
2006-08-17 07:08:41 51°15.464 2°52.903 5.6 301 16.7 100170 95
2006-08-17 07:08:46 51°15.471 2°52.88 5.6 27 16.7 100170 95
2006-08-17 07:08:51 51°15.479 2°52.857 5.5 303 16.7 100170 95
2006-08-17 07:08:56 51°15.487 2°52.835 5.4 24 16.7 100170 95
2006-08-17 07:09:01 51°15.495 2°52.812 5.6 245 16.7 100170 95
2006-08-17 07:09:06 51°15.503 2°52.789 5.4 244 16.7 100180 95
2006-08-17 07:09:11 51°15.51 2°52.766 5.6 279 16.7 100180 95
2006-08-17 07:09:16 51°15.518 2°52.743 5.7 27 16.7 100170 95
2006-08-17 07:09:21 51°15.525 2°52.72 5.9 307 16.7 100170 95
2006-08-17 07:09:26 51°15.531 2°52.697 5.6 23 16.7 100170 95
2006-08-17 07:09:31 51°15.538 2°52.674 5.3 245 16.7 100170 95
2006-08-17 07:09:35 51°15.543 2°52.655 5.1 243 16.7 100170 95
2006-08-17 07:09:41 51°15.55 2°52.626 5.8 242 16.7 100170 95
2006-08-17 07:09:46 51°15.556 2°52.602 6.1 21 16.7 100170 95
2006-08-17 07:09:51 51°15.562 2°52.579 6.4 304 16.7 100170 95
2006-08-17 07:09:56 51°15.567 2°52.555 7.2 26 16.7 100180 95
2006-08-17 07:10:01 51°15.572 2°52.53 6.7 303 16.7 100180 95
2006-08-17 07:10:06 51°15.577 2°52.506 6.3 21 16.7 100170 95
2006-08-17 07:10:11 51°15.582 2°52.482 6.3 244 16.7 100170 95
2006-08-17 07:10:16 51°15.587 2°52.458 5.9 21 16.7 100170 95
2006-08-17 07:10:21 51°15.592 2°52.434 5.4 304 16.7 100170 95
2006-08-17 07:10:26 51°15.598 2°52.41 5.1 23 16.7 100160 95
2006-08-17 07:10:31 51°15.604 2°52.386 5.6 304 16.7 100160 95
2006-08-17 07:10:36 51°15.609 2°52.362 5.4 23 16.7 100170 95
2006-08-17 07:10:41 51°15.615 2°52.338 5.3 306 16.7 100170 95
2006-08-17 07:10:46 51°15.62 2°52.314 5.1 24 16.7 100170 95
2006-08-17 07:10:51 51°15.625 2°52.29 6.4 242 16.7 100170 95
2006-08-17 07:10:56 51°15.631 2°52.266 6 26 16.7 100170 95
2006-08-17 07:11:01 51°15.637 2°52.242 5.7 243 16.7 100170 95
2006-08-17 07:11:06 51°15.643 2°52.218 6.3 22 16.7 100170 95
2006-08-17 07:11:11 51°15.65 2°52.195 5.9 279 16.7 100170 95
2006-08-17 07:11:16 51°15.657 2°52.171 5.7 248 16.7 100170 95
2006-08-17 07:11:21 51°15.663 2°52.148 5.6 246 16.7 100170 95
2006-08-17 07:11:26 51°15.671 2°52.125 5.1 248 16.7 100160 95
2006-08-17 07:11:31 51°15.678 2°52.101 5.4 307 16.7 100160 95
2006-08-17 07:11:36 51°15.685 2°52.078 5.5 242 16.7 100170 95
2006-08-17 07:11:41 51°15.692 2°52.055 6 246 16.7 100170 95
2006-08-17 07:11:46 51°15.699 2°52.031 5.8 246 16.7 100180 95
2006-08-17 07:11:51 51°15.706 2°52.008 5 246 16.7 100180 95
2006-08-17 07:11:56 51°15.713 2°51.985 5.3 246 16.7 100170 95
2006-08-17 07:12:01 51°15.72 2°51.962 4.7 301 16.7 100170 95
2006-08-17 07:12:06 51°15.726 2°51.939 5.2 249 16.7 100170 95
2006-08-17 07:12:11 51°15.732 2°51.915 5 304 16.7 100170 95
2006-08-17 07:12:16 51°15.738 2°51.892 5 21 16.8 100170 95
2006-08-17 07:12:21 51°15.743 2°51.868 5.8 301 16.8 100170 95
2006-08-17 07:12:26 51°15.748 2°51.844 5.8 22 16.7 100170 95
2006-08-17 07:12:30 51°15.753 2°51.825 5.5 242 16.7 100170 95
2006-08-17 07:12:36 51°15.759 2°51.797 5.4 26 16.8 100170 95
2006-08-17 07:12:41 51°15.764 2°51.773 5.2 303 16.8 100170 95
2006-08-17 07:12:46 51°15.77 2°51.75 6.1 25 16.8 100170 95
2006-08-17 07:12:51 51°15.775 2°51.726 6.1 244 16.8 100170 95
2006-08-17 07:12:56 51°15.781 2°51.702 5.7 248 16.8 100170 95
2006-08-17 07:13:01 51°15.788 2°51.679 5.3 301 16.8 100170 95
2006-08-17 07:13:06 51°15.794 2°51.656 4.9 247 16.8 100160 95
2006-08-17 07:13:11 51°15.801 2°51.633 4.9 238 16.8 100160 95
2006-08-17 07:13:16 51°15.808 2°51.61 4.8 246 16.8 100170 95
2006-08-17 07:13:21 51°15.814 2°51.587 5.7 246 16.8 100170 95
2006-08-17 07:13:26 51°15.82 2°51.564 5.6 246 16.7 100170 95
2006-08-17 07:13:31 51°15.826 2°51.54 5.9 301 16.7 100170 95
2006-08-17 07:13:36 51°15.832 2°51.517 5.4 23 16.8 100170 95
2006-08-17 07:13:41 51°15.838 2°51.493 6.7 303 16.8 100170 95
2006-08-17 07:13:46 51°15.844 2°51.469 6.7 22 16.8 100170 95
2006-08-17 07:13:51 51°15.849 2°51.446 5.1 302 16.8 100170 95
2006-08-17 07:13:56 51°15.854 2°51.422 5.3 248 16.8 100170 95
2006-08-17 07:14:01 51°15.86 2°51.398 6.1 303 16.8 100170 95
2006-08-17 07:14:06 51°15.865 2°51.374 5.6 20 16.8 100160 95
2006-08-17 07:14:11 51°15.87 2°51.35 6.1 244 16.8 100160 95
2006-08-17 07:14:16 51°15.874 2°51.326 6.1 243 16.7 100160 95
2006-08-17 07:14:21 51°15.879 2°51.302 6.7 303 16.7 100160 95
2006-08-17 07:14:26 51°15.883 2°51.278 6.4 21 16.8 100170 95
2006-08-17 07:14:31 51°15.888 2°51.254 6.9 241 16.8 100170 95
2006-08-17 07:14:36 51°15.893 2°51.229 6.9 23 16.7 100170 95
2006-08-17 07:14:41 51°15.897 2°51.205 6.4 308 16.7 100170 95
2006-08-17 07:14:46 51°15.902 2°51.181 3.3 25 16.8 100170 95
2006-08-17 07:14:51 51°15.907 2°51.156 6.7 307 16.8 100170 95
2006-08-17 07:14:56 51°15.912 2°51.132 7 22 16.8 100170 95
2006-08-17 07:15:01 51°15.916 2°51.108 6.7 301 16.8 100170 95
2006-08-17 07:15:05 51°15.92 2°51.089 7.7 23 16.8 100170 95
2006-08-17 07:15:11 51°15.926 2°51.06 7.9 282 16.8 100170 95
2006-08-17 07:15:16 51°15.93 2°51.035 7.4 26 16.8 100170 95
2006-08-17 07:15:21 51°15.934 2°51.011 6.6 301 16.8 100170 95
2006-08-17 07:15:26 51°15.939 2°50.987 7.5 24 16.8 100170 95
2006-08-17 07:15:31 51°15.943 2°50.962 6.7 243 16.8 100170 95
2006-08-17 07:15:36 51°15.948 2°50.938 7.6 24 16.8 100170 95
2006-08-17 07:15:41 51°15.952 2°50.914 8.2 309 16.8 100170 95
2006-08-17 07:15:46 51°15.957 2°50.89 7.9 23 16.8 100170 95
2006-08-17 07:15:51 51°15.961 2°50.865 8.3 303 16.8 100170 95
2006-08-17 07:15:56 51°15.966 2°50.842 7.8 246 16.8 100170 95
2006-08-17 07:16:01 51°15.971 2°50.817 9 244 16.8 100170 95
2006-08-17 07:16:06 51°15.975 2°50.793 8.7 24 16.8 100170 95
2006-08-17 07:16:11 51°15.98 2°50.769 8.5 303 16.8 100170 95
2006-08-17 07:16:16 51°15.984 2°50.745 9.2 24 16.8 100180 95
2006-08-17 07:16:21 51°15.988 2°50.721 9.1 238 16.8 100180 95
2006-08-17 07:16:26 51°15.992 2°50.696 8.9 22 16.8 100180 95
2006-08-17 07:16:31 51°15.996 2°50.672 9.8 308 16.8 100180 95
2006-08-17 07:16:36 51°16.001 2°50.647 8.4 26 16.8 100180 95
2006-08-17 07:16:41 51°16.005 2°50.623 8.9 238 16.8 100180 95
2006-08-17 07:16:46 51°16.009 2°50.599 8.6 24 16.8 100180 95
2006-08-17 07:16:51 51°16.013 2°50.574 7.3 241 16.8 100180 95
2006-08-17 07:16:56 51°16.017 2°50.55 7.7 24 16.8 100180 95
2006-08-17 07:17:01 51°16.021 2°50.526 7.6 304 16.8 100180 95
2006-08-17 07:17:06 51°16.025 2°50.501 8.9 25 16.8 100180 95
2006-08-17 07:17:11 51°16.029 2°50.477 7.8 284 16.8 100180 95
2006-08-17 07:17:16 51°16.032 2°50.452 8.3 24 16.8 100180 95
2006-08-17 07:17:21 51°16.035 2°50.427 8.3 304 16.8 100180 95
2006-08-17 07:17:26 51°16.038 2°50.403 7.7 21 16.8 100180 95
2006-08-17 07:17:31 51°16.041 2°50.378 7.8 243 16.8 100180 95
2006-08-17 07:17:36 51°16.043 2°50.353 8.7 23 16.8 100180 95
2006-08-17 07:17:41 51°16.047 2°50.328 8.2 244 16.8 100180 95
2006-08-17 07:17:46 51°16.05 2°50.303 8.1 245 16.8 100180 95
2006-08-17 07:17:51 51°16.054 2°50.279 7.2 306 16.8 100180 95
2006-08-17 07:17:56 51°16.058 2°50.254 7.2 246 16.8 100180 95
2006-08-17 07:18:01 51°16.062 2°50.229 7.8 246 16.8 100180 95
2006-08-17 07:18:06 51°16.067 2°50.205 7 243 16.8 100180 95
2006-08-17 07:18:11 51°16.071 2°50.18 8.2 306 16.8 100180 95
2006-08-17 07:18:16 51°16.075 2°50.155 7.9 25 16.8 100180 95
2006-08-17 07:18:21 51°16.079 2°50.131 8 243 16.8 100180 95
2006-08-17 07:18:26 51°16.083 2°50.107 8.1 24 16.8 100180 95
2006-08-17 07:18:31 51°16.087 2°50.082 8.1 306 16.8 100180 95
2006-08-17 07:18:36 51°16.092 2°50.058 6.9 22 16.8 100180 95
2006-08-17 07:18:41 51°16.096 2°50.033 6.2 238 16.8 100180 95
2006-08-17 07:18:46 51°16.1 2°50.009 7.7 28 16.8 100180 95
2006-08-17 07:18:51 51°16.104 2°49.985 7.6 301 16.8 100180 95
2006-08-17 07:18:56 51°16.109 2°49.961 8.4 28 16.8 100180 95
2006-08-17 07:19:01 51°16.113 2°49.936 7.5 242 16.8 100180 95
2006-08-17 07:19:06 51°16.117 2°49.912 8 27 16.8 100180 95
2006-08-17 07:19:11 51°16.121 2°49.887 7.8 241 16.8 100180 95
2006-08-17 07:19:16 51°16.125 2°49.863 8.1 27 16.8 100180 95
2006-08-17 07:19:21 51°16.129 2°49.839 7.8 306 16.8 100180 95
2006-08-17 07:19:26 51°16.133 2°49.814 8.5 28 16.8 100190 95
2006-08-17 07:19:31 51°16.137 2°49.79 8.1 237 16.8 100190 95
2006-08-17 07:19:36 51°16.141 2°49.765 8.1 26 16.8 100180 95
2006-08-17 07:19:41 51°16.145 2°49.741 8.3 235 16.8 100180 95
2006-08-17 07:19:46 51°16.149 2°49.716 8 26 16.8 100180 95
2006-08-17 07:19:51 51°16.153 2°49.692 8.3 238 16.8 100180 95
2006-08-17 07:19:56 51°16.157 2°49.667 9.3 23 16.8 100180 95
2006-08-17 07:20:01 51°16.16 2°49.643 8.1 240 16.8 100180 95
2006-08-17 07:20:06 51°16.164 2°49.619 8.4 27 16.8 100180 95
2006-08-17 07:20:11 51°16.169 2°49.594 7.3 241 16.8 100180 95
2006-08-17 07:20:16 51°16.173 2°49.569 7.4 29 16.8 100180 95
2006-08-17 07:20:21 51°16.176 2°49.545 8.6 235 16.8 100180 95
2006-08-17 07:20:26 51°16.179 2°49.52 8.1 23 16.8 100190 95
2006-08-17 07:20:31 51°16.182 2°49.496 7.5 305 16.8 100190 95
2006-08-17 07:20:36 51°16.185 2°49.471 8.8 25 16.8 100180 95
2006-08-17 07:20:41 51°16.188 2°49.447 8.5 32 16.8 100180 95
2006-08-17 07:20:46 51°16.19 2°49.422 8.4 21 16.8 100190 95
2006-08-17 07:20:51 51°16.193 2°49.397 8.4 309 16.8 100190 95
2006-08-17 07:20:56 51°16.197 2°49.373 8.1 25 16.8 100180 95
2006-08-17 07:21:01 51°16.201 2°49.348 7.9 238 16.8 100180 95
2006-08-17 07:21:06 51°16.206 2°49.323 8 28 16.8 100180 95
2006-08-17 07:21:11 51°16.21 2°49.299 8.1 280 16.8 100180 95
2006-08-17 07:21:16 51°16.215 2°49.275 8.2 22 16.8 100180 95
2006-08-17 07:21:21 51°16.221 2°49.251 7.3 302 16.8 100180 95
2006-08-17 07:21:26 51°16.226 2°49.227 8.2 27 16.8 100180 95
2006-08-17 07:21:31 51°16.232 2°49.203 8.4 306 16.8 100180 95
2006-08-17 07:21:36 51°16.236 2°49.179 8.5 27 16.8 100190 95
2006-08-17 07:21:41 51°16.241 2°49.156 7.9 300 16.8 100190 95
2006-08-17 07:21:46 51°16.245 2°49.132 8.5 23 16.8 100190 95
2006-08-17 07:21:51 51°16.249 2°49.108 8.9 300 16.8 100190 95
2006-08-17 07:21:56 51°16.253 2°49.084 9.2 28 16.8 100190 95
2006-08-17 07:22:01 51°16.257 2°49.061 8.3 305 16.8 100190 95
2006-08-17 07:22:06 51°16.262 2°49.037 8 29 16.8 100190 95
2006-08-17 07:22:11 51°16.265 2°49.013 9 239 16.8 100190 95
2006-08-17 07:22:16 51°16.269 2°48.99 8.1 29 16.8 100190 95
2006-08-17 07:22:21 51°16.272 2°48.966 8.1 233 16.8 100190 95
2006-08-17 07:22:26 51°16.275 2°48.942 8.2 23 16.8 100190 95
2006-08-17 07:22:31 51°16.278 2°48.918 8.4 304 16.8 100190 95
2006-08-17 07:22:36 51°16.281 2°48.894 8.9 20 16.9 100180 95
2006-08-17 07:22:41 51°16.284 2°48.87 9 237 16.9 100180 95
2006-08-17 07:22:46 51°16.287 2°48.846 8.3 24 16.8 100180 95
2006-08-17 07:22:51 51°16.289 2°48.822 8.1 309 16.8 100180 95
2006-08-17 07:22:55 51°16.292 2°48.803 8.6 23 16.8 100190 95
2006-08-17 07:23:01 51°16.296 2°48.775 8 309 16.8 100190 95
2006-08-17 07:23:06 51°16.299 2°48.751 7.4 21 16.8 100180 95
2006-08-17 07:23:11 51°16.303 2°48.727 7.2 238 16.8 100180 95
2006-08-17 07:23:16 51°16.307 2°48.704 7.4 25 16.8 100180 95
2006-08-17 07:23:21 51°16.311 2°48.68 7 238 16.8 100180 95
2006-08-17 07:23:26 51°16.316 2°48.656 7.4 24 16.8 100190 95
2006-08-17 07:23:31 51°16.32 2°48.633 7.1 301 16.8 100190 95
2006-08-17 07:23:36 51°16.325 2°48.609 6.6 22 16.8 100190 95
2006-08-17 07:23:41 51°16.33 2°48.585 7.3 306 16.8 100190 95
2006-08-17 07:23:46 51°16.335 2°48.562 6.9 24 16.8 100180 95
2006-08-17 07:23:51 51°16.34 2°48.538 7.3 235 16.8 100180 95
2006-08-17 07:23:56 51°16.344 2°48.515 7.5 22 16.8 100190 95
2006-08-17 07:24:01 51°16.349 2°48.491 8 302 16.8 100190 95
2006-08-17 07:24:06 51°16.353 2°48.468 8.3 29 16.8 100190 95
2006-08-17 07:24:11 51°16.358 2°48.444 8.4 239 16.8 100190 95
2006-08-17 07:24:16 51°16.362 2°48.42 8.7 25 16.8 100180 95
2006-08-17 07:24:21 51°16.365 2°48.396 7.7 237 16.8 100180 95
2006-08-17 07:24:26 51°16.369 2°48.372 8.4 22 16.8 100190 96
2006-08-17 07:24:31 51°16.372 2°48.348 8.5 302 16.8 100190 96
2006-08-17 07:24:36 51°16.375 2°48.324 8.3 28 16.8 100190 96
2006-08-17 07:24:41 51°16.379 2°48.301 8.4 236 16.8 100190 96
2006-08-17 07:24:46 51°16.381 2°48.277 8.7 24 16.8 100180 95
2006-08-17 07:24:51 51°16.385 2°48.253 8.3 307 16.8 100180 95
2006-08-17 07:24:56 51°16.388 2°48.229 8.6 22 16.8 100190 95
2006-08-17 07:25:01 51°16.391 2°48.205 8.7 238 16.8 100190 95
2006-08-17 07:25:06 51°16.395 2°48.181 8.7 23 16.8 100180 96
2006-08-17 07:25:11 51°16.399 2°48.157 7.8 278 16.8 100180 96
2006-08-17 07:25:16 51°16.403 2°48.133 8.6 26 16.8 100190 96
2006-08-17 07:25:21 51°16.407 2°48.11 8 240 16.8 100190 96
2006-08-17 07:25:26 51°16.413 2°48.086 8.3 22 16.8 100190 96
2006-08-17 07:25:31 51°16.418 2°48.063 8.6 303 16.8 100190 96
2006-08-17 07:25:36 51°16.423 2°48.039 8.2 25 16.8 100180 96
2006-08-17 07:25:41 51°16.428 2°48.016 8 309 16.8 100180 96
2006-08-17 07:25:46 51°16.433 2°47.992 8.3 22 16.9 100190 96
2006-08-17 07:25:51 51°16.438 2°47.969 8.7 241 16.9 100190 96
2006-08-17 07:25:56 51°16.442 2°47.945 8.6 20 16.8 100190 96
2006-08-17 07:26:01 51°16.447 2°47.922 8 302 16.8 100190 96
2006-08-17 07:26:06 51°16.452 2°47.898 7.8 22 16.9 100190 96
2006-08-17 07:26:11 51°16.456 2°47.874 7.9 303 16.9 100190 96
2006-08-17 07:26:16 51°16.461 2°47.85 8 21 16.9 100190 96
2006-08-17 07:26:21 51°16.466 2°47.826 7.8 303 16.9 100190 96
2006-08-17 07:26:26 51°16.47 2°47.803 8 26 16.8 100190 96
2006-08-17 07:26:31 51°16.475 2°47.779 8.8 33 16.8 100190 96
2006-08-17 07:26:36 51°16.48 2°47.755 8.7 27 16.8 100190 96
2006-08-17 07:26:41 51°16.485 2°47.732 9 238 16.8 100190 96
2006-08-17 07:26:46 51°16.489 2°47.708 9.1 27 16.8 100190 96
2006-08-17 07:26:51 51°16.494 2°47.684 8.3 239 16.8 100190 96
2006-08-17 07:26:56 51°16.499 2°47.66 8.1 26 16.8 100190 96
2006-08-17 07:27:01 51°16.503 2°47.636 9.1 238 16.8 100190 96
2006-08-17 07:27:06 51°16.508 2°47.612 9.1 27 16.8 100180 96
2006-08-17 07:27:10 51°16.511 2°47.593 8.9 284 16.8 100180 96
2006-08-17 07:27:16 51°16.516 2°47.565 9.3 21 16.8 100190 95
2006-08-17 07:27:21 51°16.52 2°47.54 9.2 236 16.8 100190 95
2006-08-17 07:27:26 51°16.523 2°47.516 10 27 16.8 100190 96
2006-08-17 07:27:30 51°16.526 2°47.497 8.8 32 16.8 100190 96
2006-08-17 07:27:36 51°16.531 2°47.468 8.3 26 16.8 100180 96
2006-08-17 07:27:41 51°16.535 2°47.444 8.5 240 16.8 100180 96
2006-08-17 07:27:46 51°16.54 2°47.421 8.2 23 16.8 100190 96
2006-08-17 07:27:51 51°16.545 2°47.397 8.2 240 16.8 100190 96
2006-08-17 07:27:56 51°16.551 2°47.373 8.3 25 16.8 100180 95
2006-08-17 07:28:01 51°16.556 2°47.349 7.6 301 16.8 100180 95
2006-08-17 07:28:06 51°16.561 2°47.326 8 27 16.8 100180 95
2006-08-17 07:28:11 51°16.566 2°47.302 7.7 303 16.8 100180 95
2006-08-17 07:28:16 51°16.571 2°47.278 8.5 29 16.8 100190 95
2006-08-17 07:28:20 51°16.575 2°47.259 9 301 16.8 100190 95
2006-08-17 07:28:26 51°16.581 2°47.23 8.2 26 16.8 100190 96
2006-08-17 07:28:31 51°16.586 2°47.206 8.4 239 16.8 100190 96
2006-08-17 07:28:36 51°16.591 2°47.182 8.9 28 16.9 100190 96
2006-08-17 07:28:41 51°16.597 2°47.158 8.2 305 16.9 100190 96
2006-08-17 07:28:46 51°16.602 2°47.134 8.3 24 16.8 100190 96
2006-08-17 07:28:51 51°16.608 2°47.11 7.1 239 16.8 100190 96
2006-08-17 07:28:56 51°16.613 2°47.087 8 23 16.8 100190 96
2006-08-17 07:29:01 51°16.619 2°47.062 7.7 237 16.8 100190 96
2006-08-17 07:29:06 51°16.624 2°47.038 8.5 21 16.8 100190 96
2006-08-17 07:29:11 51°16.629 2°47.014 9.5 280 16.8 100190 96
2006-08-17 07:29:16 51°16.634 2°46.99 8.7 26 16.8 100190 96
2006-08-17 07:29:21 51°16.64 2°46.966 8.9 239 16.8 100190 96
2006-08-17 07:29:26 51°16.645 2°46.942 7.7 23 16.9 100190 96
2006-08-17 07:29:31 51°16.65 2°46.917 8.3 305 16.9 100190 96
2006-08-17 07:29:35 51°16.654 2°46.898 8.1 27 16.9 100190 96
2006-08-17 07:29:41 51°16.66 2°46.869 8.4 32 16.9 100190 96
2006-08-17 07:29:46 51°16.665 2°46.845 8.7 22 16.8 100190 96
2006-08-17 07:29:51 51°16.67 2°46.821 7.6 302 16.8 100190 96
2006-08-17 07:29:56 51°16.675 2°46.797 8 27 16.8 100190 96
2006-08-17 07:30:01 51°16.68 2°46.772 7.6 235 16.8 100190 96
2006-08-17 07:30:06 51°16.686 2°46.748 8 29 16.8 100190 96
2006-08-17 07:30:11 51°16.691 2°46.724 8.3 33 16.8 100190 96
2006-08-17 07:30:16 51°16.696 2°46.7 8.4 25 16.8 100190 96
2006-08-17 07:30:21 51°16.701 2°46.676 8.5 301 16.8 100190 96
2006-08-17 07:30:26 51°16.707 2°46.652 8.5 27 16.9 100190 96
2006-08-17 07:30:31 51°16.712 2°46.629 8.4 237 16.9 100190 96
2006-08-17 07:30:36 51°16.717 2°46.605 9.4 25 16.8 100190 96
2006-08-17 07:30:41 51°16.722 2°46.581 8.7 307 16.8 100190 96
2006-08-17 07:30:46 51°16.726 2°46.557 8.2 29 16.8 100190 96
2006-08-17 07:30:50 51°16.73 2°46.537 7.6 237 16.8 100190 96
2006-08-17 07:30:56 51°16.737 2°46.508 7.8 28 16.8 100190 96
2006-08-17 07:31:01 51°16.744 2°46.485 8.1 306 16.8 100190 96
2006-08-17 07:31:06 51°16.751 2°46.461 7.6 25 16.8 100190 96
2006-08-17 07:31:10 51°16.756 2°46.443 8.2 236 16.8 100190 96
2006-08-17 07:31:16 51°16.765 2°46.415 8 24 16.8 100190 96
2006-08-17 07:31:21 51°16.773 2°46.392 8.4 240 16.8 100190 96
2006-08-17 07:31:26 51°16.78 2°46.369 8.3 29 16.8 100190 96
2006-08-17 07:31:31 51°16.788 2°46.346 8 237 16.8 100190 96
2006-08-17 07:31:36 51°16.795 2°46.323 8.2 23 16.8 100190 96
2006-08-17 07:31:41 51°16.803 2°46.3 7.8 240 16.8 100190 96
2006-08-17 07:31:46 51°16.81 2°46.277 8.1 24 16.8 100190 96
2006-08-17 07:31:51 51°16.818 2°46.254 7.9 308 16.8 100190 96
2006-08-17 07:31:56 51°16.825 2°46.23 7.7 21 16.8 100190 96
2006-08-17 07:32:01 51°16.833 2°46.207 8 237 16.8 100190 96
2006-08-17 07:32:06 51°16.84 2°46.184 8.2 28 16.8 100190 96
2006-08-17 07:32:10 51°16.846 2°46.165 8 239 16.8 100190 96
2006-08-17 07:32:16 51°16.855 2°46.137 8.5 23 16.8 100190 96
2006-08-17 07:32:21 51°16.863 2°46.114 7.9 33 16.8 100190 96
2006-08-17 07:32:26 51°16.87 2°46.09 8.3 26 16.8 100190 96
2006-08-17 07:32:31 51°16.877 2°46.067 8.8 304 16.8 100190 96
2006-08-17 07:32:36 51°16.884 2°46.043 9 20 16.8 100200 96
2006-08-17 07:32:41 51°16.891 2°46.019 8.5 307 16.8 100200 96
2006-08-17 07:32:46 51°16.899 2°45.996 8.3 25 16.9 100190 96
2006-08-17 07:32:51 51°16.906 2°45.972 7.7 303 16.9 100190 96
2006-08-17 07:32:56 51°16.913 2°45.948 8.3 21 16.9 100200 96
2006-08-17 07:33:01 51°16.92 2°45.925 8.3 300 16.9 100200 96
2006-08-17 07:33:06 51°16.928 2°45.901 7.8 24 16.9 100190 96
2006-08-17 07:33:11 51°16.935 2°45.877 8.1 282 16.9 100190 96
2006-08-17 07:33:16 51°16.942 2°45.854 8 20 16.8 100190 96
2006-08-17 07:33:21 51°16.95 2°45.83 8.2 304 16.8 100190 96
2006-08-17 07:33:26 51°16.957 2°45.807 6.8 28 16.8 100190 96
2006-08-17 07:33:30 51°16.963 2°45.788 7.5 235 16.8 100190 96
2006-08-17 07:33:36 51°16.973 2°45.76 7.5 27 16.8 100200 96
2006-08-17 07:33:41 51°16.98 2°45.737 8.3 34 16.8 100200 96
2006-08-17 07:33:46 51°16.988 2°45.713 7.6 27 16.9 100190 96
2006-08-17 07:33:51 51°16.996 2°45.69 7.5 33 16.9 100190 96
2006-08-17 07:33:56 51°17.004 2°45.667 7.2 25 16.9 100190 96
2006-08-17 07:34:01 51°17.012 2°45.644 6.8 237 16.9 100190 96
2006-08-17 07:34:06 51°17.02 2°45.621 7.1 29 16.9 100190 96
2006-08-17 07:34:11 51°17.028 2°45.597 7.5 304 16.9 100190 96
2006-08-17 07:34:16 51°17.036 2°45.574 8.1 23 16.9 100190 96
2006-08-17 07:34:21 51°17.043 2°45.55 8 236 16.9 100190 96
2006-08-17 07:34:26 51°17.051 2°45.527 7.3 27 16.9 100190 96
2006-08-17 07:34:31 51°17.059 2°45.503 7.3 307 16.9 100190 96
2006-08-17 07:34:36 51°17.066 2°45.48 7.6 27 16.9 100190 96
2006-08-17 07:34:41 51°17.074 2°45.456 8.2 237 16.9 100190 96
2006-08-17 07:34:46 51°17.082 2°45.433 8 27 16.9 100190 96
2006-08-17 07:34:51 51°17.09 2°45.41 8.3 307 16.9 100190 96
2006-08-17 07:34:56 51°17.097 2°45.386 7.8 28 16.9 100190 96
2006-08-17 07:35:01 51°17.105 2°45.363 8 307 16.9 100190 96
2006-08-17 07:35:06 51°17.113 2°45.34 7.8 25 16.9 100190 96
2006-08-17 07:35:11 51°17.121 2°45.317 8.2 284 16.9 100190 96
2006-08-17 07:35:16 51°17.128 2°45.293 8.3 28 16.9 100190 96
2006-08-17 07:35:21 51°17.136 2°45.27 8 301 16.9 100190 96
2006-08-17 07:35:26 51°17.144 2°45.247 7.6 26 16.9 100190 96
2006-08-17 07:35:30 51°17.15 2°45.228 7.4 236 16.9 100190 96
2006-08-17 07:35:36 51°17.159 2°45.201 8.1 22 16.9 100190 96
2006-08-17 07:35:41 51°17.167 2°45.177 8.2 34 16.9 100190 96
2006-08-17 07:35:46 51°17.175 2°45.155 8 26 16.9 100200 96
2006-08-17 07:35:51 51°17.183 2°45.132 8 238 16.9 100200 96
2006-08-17 07:35:56 51°17.191 2°45.109 7.4 24 16.9 100190 96
2006-08-17 07:36:01 51°17.199 2°45.086 8.8 238 16.9 100190 96
2006-08-17 07:36:06 51°17.206 2°45.064 8 25 16.9 100190 96
2006-08-17 07:36:11 51°17.214 2°45.041 8.2 306 16.9 100190 96
2006-08-17 07:36:16 51°17.222 2°45.018 8.1 29 16.9 100190 96
2006-08-17 07:36:21 51°17.229 2°44.995 8.9 237 16.9 100190 96
2006-08-17 07:36:26 51°17.237 2°44.972 8.3 22 16.9 100190 96
2006-08-17 07:36:30 51°17.243 2°44.954 8 237 16.9 100190 96
2006-08-17 07:36:36 51°17.252 2°44.926 8 28 16.9 100190 96
2006-08-17 07:36:41 51°17.259 2°44.903 8.3 236 16.9 100190 96
2006-08-17 07:36:46 51°17.266 2°44.88 7.7 27 16.9 100190 96
2006-08-17 07:36:51 51°17.273 2°44.857 8.4 31 16.9 100190 96
2006-08-17 07:36:56 51°17.281 2°44.835 7.8 20 16.9 100190 96
2006-08-17 07:37:01 51°17.288 2°44.811 7.9 235 16.9 100190 96
2006-08-17 07:37:06 51°17.295 2°44.789 7.9 22 17 100200 96
2006-08-17 07:37:11 51°17.303 2°44.766 7.6 282 17 100200 96
2006-08-17 07:37:16 51°17.31 2°44.743 7.9 23 17 100200 96
2006-08-17 07:37:20 51°17.316 2°44.724 8 236 17 100200 96
2006-08-17 07:37:26 51°17.325 2°44.697 8.6 25 17 100190 96
2006-08-17 07:37:31 51°17.333 2°44.674 7.8 36 17 100190 96
2006-08-17 07:37:36 51°17.341 2°44.651 8.1 26 17 100190 96
2006-08-17 07:37:41 51°17.348 2°44.628 8.3 238 17 100190 96
2006-08-17 07:37:46 51°17.356 2°44.606 7.7 26 17 100190 96
2006-08-17 07:37:51 51°17.364 2°44.583 7.8 305 17 100190 96
2006-08-17 07:37:55 51°17.37 2°44.565 7.6 23 17 100200 96
2006-08-17 07:38:01 51°17.38 2°44.537 7.5 237 17 100200 96
2006-08-17 07:38:06 51°17.387 2°44.514 7.5 24 17 100190 96
2006-08-17 07:38:11 51°17.394 2°44.491 7.8 237 17 100190 96
2006-08-17 07:38:16 51°17.402 2°44.468 7.5 29 17 100190 96
2006-08-17 07:38:21 51°17.409 2°44.444 8.3 238 17 100190 96
2006-08-17 07:38:26 51°17.416 2°44.421 7.8 24 17 100190 96
2006-08-17 07:38:31 51°17.424 2°44.397 8.7 234 17 100190 96
2006-08-17 07:38:36 51°17.431 2°44.374 7.7 29 17 100190 96
2006-08-17 07:38:41 51°17.439 2°44.351 8.3 236 17 100190 96
2006-08-17 07:38:46 51°17.446 2°44.328 8 23 16.9 100200 96
2006-08-17 07:38:51 51°17.454 2°44.305 7.6 301 16.9 100200 96
2006-08-17 07:38:56 51°17.462 2°44.282 7.3 25 16.9 100190 96
2006-08-17 07:39:01 51°17.469 2°44.259 8.1 32 16.9 100190 96
2006-08-17 07:39:06 51°17.476 2°44.235 7.7 26 16.9 100200 96
2006-08-17 07:39:11 51°17.484 2°44.212 7.6 284 16.9 100200 96
2006-08-17 07:39:15 51°17.49 2°44.193 7.8 26 16.9 100190 96
2006-08-17 07:39:21 51°17.499 2°44.165 7.6 236 16.9 100190 96
2006-08-17 07:39:26 51°17.506 2°44.142 7.9 21 17 100200 96
2006-08-17 07:39:31 51°17.513 2°44.119 8.3 234 17 100200 96
2006-08-17 07:39:36 51°17.521 2°44.096 8 25 16.9 100190 96
2006-08-17 07:39:41 51°17.528 2°44.072 8.2 35 16.9 100190 96
2006-08-17 07:39:46 51°17.535 2°44.049 7.9 27 17 100190 96
2006-08-17 07:39:51 51°17.543 2°44.025 7.7 32 17 100190 96
2006-08-17 07:39:56 51°17.551 2°44.003 7.9 26 17 100190 96
2006-08-17 07:40:01 51°17.559 2°43.98 7.8 236 17 100190 96
2006-08-17 07:40:06 51°17.566 2°43.956 8 26 16.9 100190 96
2006-08-17 07:40:11 51°17.574 2°43.933 7.4 31 16.9 100190 96
2006-08-17 07:40:16 51°17.582 2°43.91 7 26 17 100190 96
2006-08-17 07:40:21 51°17.589 2°43.887 7.6 302 17 100190 96
2006-08-17 07:40:26 51°17.597 2°43.864 7.7 24 17 100190 96
2006-08-17 07:40:30 51°17.603 2°43.846 8.2 305 17 100190 96
2006-08-17 07:40:36 51°17.611 2°43.818 7.9 30 17 100190 96
2006-08-17 07:40:41 51°17.618 2°43.794 8 302 17 100190 96
2006-08-17 07:40:46 51°17.625 2°43.771 7.6 23 17 100190 96
2006-08-17 07:40:51 51°17.631 2°43.747 7.6 307 17 100190 96
2006-08-17 07:40:56 51°17.638 2°43.724 7.8 24 17 100200 96
2006-08-17 07:41:01 51°17.645 2°43.7 7.7 234 17 100200 96
2006-08-17 07:41:06 51°17.652 2°43.677 7.5 26 17 100190 96
2006-08-17 07:41:11 51°17.659 2°43.654 8 279 17 100190 96
2006-08-17 07:41:16 51°17.667 2°43.631 8.1 29 17 100190 96
2006-08-17 07:41:21 51°17.675 2°43.608 7.1 36 17 100190 96
2006-08-17 07:41:26 51°17.682 2°43.586 6.8 27 17 100190 96
2006-08-17 07:41:30 51°17.688 2°43.567 7.5 36 17 100190 96
2006-08-17 07:41:36 51°17.698 2°43.54 7.1 23 17 100190 96
2006-08-17 07:41:41 51°17.705 2°43.517 7.1 34 17 100190 96
2006-08-17 07:41:46 51°17.713 2°43.494 7.2 27 17 100190 96
2006-08-17 07:41:50 51°17.719 2°43.476 7.3 236 17 100190 96
2006-08-17 07:41:56 51°17.729 2°43.449 7.4 30 17 100200 96
2006-08-17 07:42:01 51°17.737 2°43.427 7.1 304 17 100200 96
2006-08-17 07:42:06 51°17.745 2°43.405 6.9 29 17 100190 96
2006-08-17 07:42:11 51°17.754 2°43.383 7.3 34 17 100190 96
2006-08-17 07:42:16 51°17.762 2°43.361 7.4 23 17 100190 96
2006-08-17 07:42:21 51°17.77 2°43.338 7.2 34 17 100190 96
2006-08-17 07:42:26 51°17.778 2°43.316 7.4 22 17 100190 96
2006-08-17 07:42:31 51°17.787 2°43.294 6.5 234 17 100190 96
2006-08-17 07:42:35 51°17.793 2°43.276 6.5 25 17 100190 96
2006-08-17 07:42:41 51°17.804 2°43.25 6.6 235 17 100190 96
2006-08-17 07:42:46 51°17.812 2°43.228 7.2 22 17 100190 96
2006-08-17 07:42:51 51°17.821 2°43.206 7 302 17 100190 96
2006-08-17 07:42:56 51°17.829 2°43.183 7.3 23 17 100200 96
2006-08-17 07:43:01 51°17.838 2°43.161 7.6 32 17 100200 96
2006-08-17 07:43:06 51°17.846 2°43.139 7.4 21 17 100200 96
2006-08-17 07:43:11 51°17.855 2°43.116 6.9 32 17 100200 96
2006-08-17 07:43:16 51°17.863 2°43.094 7.3 20 17 100200 96
2006-08-17 07:43:21 51°17.872 2°43.071 7.6 33 17 100200 96
2006-08-17 07:43:26 51°17.88 2°43.049 7.3 26 17 100190 96
2006-08-17 07:43:31 51°17.889 2°43.026 7.1 303 17 100190 96
2006-08-17 07:43:36 51°17.898 2°43.004 7.4 22 17 100190 96
2006-08-17 07:43:41 51°17.906 2°42.981 6.7 36 17 100190 96
2006-08-17 07:43:46 51°17.915 2°42.958 7.1 26 17 100200 96
2006-08-17 07:43:50 51°17.922 2°42.94 6.4 35 17 100200 96
2006-08-17 07:43:56 51°17.932 2°42.913 6.7 23 17 100190 96
2006-08-17 07:44:01 51°17.941 2°42.89 6.9 303 17 100190 96
2006-08-17 07:44:06 51°17.95 2°42.867 7.2 21 17 100200 96
2006-08-17 07:44:11 51°17.959 2°42.844 6.8 31 17 100200 96
2006-08-17 07:44:16 51°17.968 2°42.821 6.9 26 17 100200 96
2006-08-17 07:44:21 51°17.976 2°42.798 7.2 306 17 100200 96
2006-08-17 07:44:26 51°17.984 2°42.775 7.4 24 17 100200 96
2006-08-17 07:44:31 51°17.992 2°42.751 7 35 17 100200 96
2006-08-17 07:44:35 51°17.998 2°42.732 7.1 22 17 100190 96
2006-08-17 07:44:41 51°18.008 2°42.704 6.8 33 17 100190 96
2006-08-17 07:44:46 51°18.015 2°42.68 6.9 21 17 100190 96
2006-08-17 07:44:51 51°18.023 2°42.657 6.9 36 17 100190 96
2006-08-17 07:44:56 51°18.031 2°42.633 7.6 28 17 100200 96
2006-08-17 07:45:01 51°18.039 2°42.61 8.1 35 17 100200 96
2006-08-17 07:45:06 51°18.047 2°42.586 8.3 24 17 100190 96
2006-08-17 07:45:10 51°18.053 2°42.567 8 281 17 100190 96
2006-08-17 07:45:16 51°18.063 2°42.54 7.2 27 17 100200 96
2006-08-17 07:45:21 51°18.071 2°42.516 6.9 233 17 100200 96
2006-08-17 07:45:26 51°18.08 2°42.494 7 20 17 100200 96
2006-08-17 07:45:31 51°18.088 2°42.471 7 301 17 100200 96
2006-08-17 07:45:36 51°18.097 2°42.449 7.5 24 17 100190 96
2006-08-17 07:45:41 51°18.105 2°42.426 7.4 36 17 100190 96
2006-08-17 07:45:45 51°18.112 2°42.408 7 24 17 100190 96
2006-08-17 07:45:51 51°18.121 2°42.38 7.3 302 17 100190 96
2006-08-17 07:45:56 51°18.129 2°42.357 7.8 23 17 100190 96
2006-08-17 07:46:01 51°18.136 2°42.334 8.2 34 17 100190 96
2006-08-17 07:46:06 51°18.143 2°42.311 7.7 22 17 100190 96
2006-08-17 07:46:11 51°18.15 2°42.287 7.7 281 17 100190 96
2006-08-17 07:46:16 51°18.157 2°42.264 7.2 24 17 100200 96
2006-08-17 07:46:21 51°18.165 2°42.242 7.4 305 17 100200 96
2006-08-17 07:46:26 51°18.173 2°42.219 7.1 30 17 100190 96
2006-08-17 07:46:31 51°18.182 2°42.197 8.1 234 17 100190 96
2006-08-17 07:46:36 51°18.19 2°42.174 7.8 28 17 100190 96
2006-08-17 07:46:41 51°18.199 2°42.152 6.6 33 17 100190 96
2006-08-17 07:46:46 51°18.207 2°42.13 6.9 29 17 100190 96
2006-08-17 07:46:51 51°18.216 2°42.108 6.7 235 17 100190 96
2006-08-17 07:46:55 51°18.223 2°42.09 7.1 22 17 100190 96
2006-08-17 07:47:01 51°18.233 2°42.064 6.9 32 17 100190 96
2006-08-17 07:47:06 51°18.242 2°42.042 6.5 22 17 100200 96
2006-08-17 07:47:11 51°18.25 2°42.019 7.3 34 17 100200 96
2006-08-17 07:47:16 51°18.259 2°41.997 6.9 27 17 100190 96
2006-08-17 07:47:21 51°18.267 2°41.975 6.8 35 17 100190 96
2006-08-17 07:47:25 51°18.274 2°41.957 7.3 21 17 100190 96
2006-08-17 07:47:30 51°18.282 2°41.935 7.6 34 17 100190 96
2006-08-17 07:47:36 51°18.293 2°41.908 7.4 22 17 100200 96
2006-08-17 07:47:41 51°18.301 2°41.885 7.1 34 17 100200 96
2006-08-17 07:47:46 51°18.309 2°41.862 7.3 22 17 100200 96
2006-08-17 07:47:51 51°18.318 2°41.84 7.9 302 17 100200 96
2006-08-17 07:47:56 51°18.326 2°41.817 7.6 27 17 100200 96
2006-08-17 07:48:01 51°18.333 2°41.794 7.4 234 17 100200 96
2006-08-17 07:48:06 51°18.341 2°41.772 7.5 22 17.2 100200 96
2006-08-17 07:48:10 51°18.347 2°41.753 6.7 37 17.2 100200 96
2006-08-17 07:48:16 51°18.356 2°41.726 7.3 27 17 100200 96
2006-08-17 07:48:21 51°18.364 2°41.703 6.8 233 17 100200 96
2006-08-17 07:48:26 51°18.372 2°41.68 7.1 27 17 100190 96
2006-08-17 07:48:31 51°18.38 2°41.657 7.3 308 17 100190 96
2006-08-17 07:48:36 51°18.388 2°41.635 6.9 28 17 100200 96
2006-08-17 07:48:41 51°18.397 2°41.612 6.8 232 17 100200 96
2006-08-17 07:48:46 51°18.405 2°41.589 7.1 20 17 100200 96
2006-08-17 07:48:51 51°18.414 2°41.567 6.9 34 17 100200 96
2006-08-17 07:48:56 51°18.422 2°41.545 6.6 29 17.1 100200 96
2006-08-17 07:49:01 51°18.431 2°41.523 6.8 35 17.1 100200 96
2006-08-17 07:49:06 51°18.439 2°41.501 6.3 23 17.1 100200 96
2006-08-17 07:49:11 51°18.448 2°41.478 7.4 232 17.1 100200 96
2006-08-17 07:49:16 51°18.456 2°41.456 7.4 23 17.1 100200 96
2006-08-17 07:49:21 51°18.465 2°41.434 7.6 38 17.1 100200 96
2006-08-17 07:49:26 51°18.473 2°41.412 7.3 28 17.1 100200 96
2006-08-17 07:49:31 51°18.481 2°41.389 7.1 232 17.1 100200 96
2006-08-17 07:49:36 51°18.489 2°41.367 7.6 23 17.1 100200 96
2006-08-17 07:49:41 51°18.498 2°41.345 7.4 32 17.1 100200 96
2006-08-17 07:49:46 51°18.506 2°41.323 7.3 20 17.1 100200 96
2006-08-17 07:49:50 51°18.513 2°41.305 6.9 233 17.1 100200 96
2006-08-17 07:49:56 51°18.522 2°41.278 7.1 22 17.2 100200 96
2006-08-17 07:50:01 51°18.53 2°41.255 7.4 234 17.2 100200 96
2006-08-17 07:50:06 51°18.537 2°41.233 7.3 24 17.1 100200 96
2006-08-17 07:50:11 51°18.546 2°41.21 7.5 235 17.1 100200 96
2006-08-17 07:50:16 51°18.554 2°41.188 7.2 23 17.1 100200 96
2006-08-17 07:50:21 51°18.562 2°41.165 7.3 236 17.1 100200 96
2006-08-17 07:50:26 51°18.57 2°41.143 7.3 27 17.1 100190 96
2006-08-17 07:50:31 51°18.58 2°41.122 6.4 233 17.1 100190 96
2006-08-17 07:50:36 51°18.59 2°41.101 6.1 26 17.1 100190 96
2006-08-17 07:50:41 51°18.6 2°41.081 6.3 34 17.1 100190 96
2006-08-17 07:50:46 51°18.611 2°41.062 6.1 22 17.1 100200 96
2006-08-17 07:50:51 51°18.622 2°41.042 6.1 38 17.1 100200 96
2006-08-17 07:50:56 51°18.633 2°41.023 6 20 17.1 100200 96
2006-08-17 07:51:01 51°18.645 2°41.004 6 306 17.1 100200 96
2006-08-17 07:51:06 51°18.656 2°40.984 5.9 24 17.1 100200 96
2006-08-17 07:51:11 51°18.667 2°40.965 6.1 39 17.1 100200 96
2006-08-17 07:51:16 51°18.679 2°40.947 6.3 20 17.1 100200 96
2006-08-17 07:51:21 51°18.69 2°40.928 6.3 308 17.1 100200 96
2006-08-17 07:51:26 51°18.702 2°40.909 6.7 23 17.1 100200 96
2006-08-17 07:51:31 51°18.713 2°40.89 6.5 34 17.1 100200 96
2006-08-17 07:51:36 51°18.724 2°40.871 6.3 26 17.1 100210 96
2006-08-17 07:51:40 51°18.734 2°40.856 6.9 234 17.1 100210 96
2006-08-17 07:51:46 51°18.747 2°40.833 6.4 21 17.1 100200 96
2006-08-17 07:51:51 51°18.759 2°40.814 7 35 17.1 100200 96
2006-08-17 07:51:56 51°18.771 2°40.795 6.5 28 17.1 100200 96
2006-08-17 07:52:01 51°18.783 2°40.776 6.6 31 17.1 100200 96
2006-08-17 07:52:06 51°18.794 2°40.757 6.6 25 17.1 100200 96
2006-08-17 07:52:11 51°18.805 2°40.738 6.6 36 17.1 100200 96
2006-08-17 07:52:16 51°18.816 2°40.719 6.7 28 17.1 100200 95
2006-08-17 07:52:21 51°18.827 2°40.699 5.6 34 17.1 100200 95
2006-08-17 07:52:26 51°18.837 2°40.68 6.2 27 17.1 100200 95
2006-08-17 07:52:31 51°18.848 2°40.66 7.4 34 17.1 100200 95
2006-08-17 07:52:36 51°18.858 2°40.639 6.4 23 17.1 100200 95
2006-08-17 07:52:41 51°18.868 2°40.619 6.5 233 17.1 100200 95
2006-08-17 07:52:46 51°18.878 2°40.599 6.3 26 17.1 100200 95
2006-08-17 07:52:50 51°18.886 2°40.582 6.4 39 17.1 100200 95
2006-08-17 07:52:56 51°18.898 2°40.557 6.7 28 17.1 100200 95
2006-08-17 07:53:01 51°18.908 2°40.537 5.8 39 17.1 100200 95
2006-08-17 07:53:06 51°18.919 2°40.517 5.9 29 17.1 100200 95
2006-08-17 07:53:10 51°18.928 2°40.502 6 35 17.1 100200 95
2006-08-17 07:53:16 51°18.941 2°40.478 6 30 17.1 100190 95
2006-08-17 07:53:21 51°18.951 2°40.458 6.3 302 17.1 100190 95
2006-08-17 07:53:26 51°18.962 2°40.438 6.2 29 17.1 100190 95
2006-08-17 07:53:31 51°18.973 2°40.418 5.9 41 17.1 100190 95
2006-08-17 07:53:36 51°18.984 2°40.398 6.1 22 17.1 100200 95
2006-08-17 07:53:41 51°18.995 2°40.378 6.5 34 17.1 100200 95
2006-08-17 07:53:46 51°19.006 2°40.358 6.1 23 17.1 100190 95
2006-08-17 07:53:51 51°19.017 2°40.338 6.9 40 17.1 100190 95
2006-08-17 07:53:56 51°19.028 2°40.317 7.3 27 17.1 100200 95
2006-08-17 07:54:01 51°19.038 2°40.296 7.2 307 17.1 100200 95
2006-08-17 07:54:06 51°19.049 2°40.276 6.5 25 17.1 100200 95
2006-08-17 07:54:11 51°19.06 2°40.255 7.1 32 17.1 100200 95
2006-08-17 07:54:16 51°19.071 2°40.235 7.2 24 17.2 100190 95
2006-08-17 07:54:21 51°19.082 2°40.214 6.9 37 17.2 100190 95
2006-08-17 07:54:26 51°19.093 2°40.194 6.4 22 17.1 100190 95
2006-08-17 07:54:31 51°19.104 2°40.173 7 300 17.1 100190 95
2006-08-17 07:54:36 51°19.116 2°40.153 7.7 24 17.2 100190 95
2006-08-17 07:54:41 51°19.126 2°40.131 7.6 39 17.2 100190 95
2006-08-17 07:54:46 51°19.137 2°40.111 8.5 26 17.2 100190 95
2006-08-17 07:54:50 51°19.146 2°40.094 7.4 33 17.2 100190 95
2006-08-17 07:54:56 51°19.159 2°40.069 7.8 20 17.2 100190 95
2006-08-17 07:55:01 51°19.17 2°40.048 8.1 31 17.2 100190 95
2006-08-17 07:55:06 51°19.18 2°40.027 7.7 19 17.1 100190 95
2006-08-17 07:55:10 51°19.188 2°40.01 7.8 37 17.1 100190 95
2006-08-17 07:55:16 51°19.201 2°39.984 7.5 28 17.1 100190 94
2006-08-17 07:55:21 51°19.21 2°39.963 8.4 38 17.1 100190 94
2006-08-17 07:55:26 51°19.22 2°39.941 8.6 25 17.1 100190 94
2006-08-17 07:55:31 51°19.23 2°39.919 7.9 33 17.1 100190 94
2006-08-17 07:55:36 51°19.24 2°39.898 7.7 25 17.1 100190 94
2006-08-17 07:55:41 51°19.251 2°39.876 7.7 304 17.1 100190 94
2006-08-17 07:55:46 51°19.261 2°39.854 8.1 27 17.1 100190 94
2006-08-17 07:55:51 51°19.272 2°39.833 7.8 301 17.1 100190 94
2006-08-17 07:55:56 51°19.282 2°39.812 6.9 22 17.1 100190 94
2006-08-17 07:56:01 51°19.294 2°39.792 7.6 305 17.1 100190 94
2006-08-17 07:56:05 51°19.303 2°39.775 7.4 25 17.1 100190 94
2006-08-17 07:56:09 51°19.312 2°39.759 7.3 303 17.1 100190 94
2006-08-17 07:56:16 51°19.328 2°39.73 7.8 26 17.1 100190 94
2006-08-17 07:56:21 51°19.34 2°39.71 7.9 304 17.1 100190 94
2006-08-17 07:56:25 51°19.349 2°39.693 7.6 25 17.1 100190 94
2006-08-17 07:56:30 51°19.36 2°39.672 7.7 306 17.1 100190 94
2006-08-17 07:56:36 51°19.373 2°39.647 7.1 28 17.1 100190 94
2006-08-17 07:56:41 51°19.385 2°39.626 7.5 301 17.1 100190 94
2006-08-17 07:56:46 51°19.395 2°39.605 7.5 27 17.1 100190 94
2006-08-17 07:56:51 51°19.406 2°39.583 7.7 303 17.1 100190 94
2006-08-17 07:56:56 51°19.417 2°39.562 7.4 22 17.1 100190 93
2006-08-17 07:57:01 51°19.428 2°39.541 7.7 302 17.1 100190 93
2006-08-17 07:57:05 51°19.437 2°39.524 7.9 29 17.1 100190 93
2006-08-17 07:57:11 51°19.45 2°39.499 8.4 278 17.1 100190 93
2006-08-17 07:57:16 51°19.462 2°39.478 8 29 17.2 100190 94
2006-08-17 07:57:21 51°19.473 2°39.457 8.2 307 17.2 100190 94
2006-08-17 07:57:26 51°19.483 2°39.435 8.1 26 17.2 100190 93
2006-08-17 07:57:31 51°19.494 2°39.414 8.2 308 17.2 100190 93
2006-08-17 07:57:35 51°19.503 2°39.397 8.4 20 17.2 100190 93
2006-08-17 07:57:41 51°19.515 2°39.371 7.5 32 17.2 100190 93
2006-08-17 07:57:46 51°19.526 2°39.349 7.9 21 17.2 100190 93
2006-08-17 07:57:49 51°19.532 2°39.336 8.4 307 17.2 100190 93
2006-08-17 07:57:56 51°19.546 2°39.305 8.7 316 17.2 100190 93
2006-08-17 07:58:01 51°19.555 2°39.282 9.3 302 17.2 100190 93
2006-08-17 07:58:05 51°19.563 2°39.264 9.4 29 17.2 100190 93
2006-08-17 07:58:11 51°19.573 2°39.237 8.8 308 17.2 100190 93
2006-08-17 07:58:16 51°19.582 2°39.213 8.8 25 17.2 100190 92
2006-08-17 07:58:21 51°19.59 2°39.19 10 303 17.2 100190 92
2006-08-17 07:58:26 51°19.598 2°39.167 9.8 27 17.2 100190 92
2006-08-17 07:58:30 51°19.605 2°39.148 9.6 309 17.2 100190 92
2006-08-17 07:58:36 51°19.613 2°39.12 9.5 27 17.1 100190 92
2006-08-17 07:58:41 51°19.621 2°39.096 9.1 304 17.1 100190 92
2006-08-17 07:58:45 51°19.627 2°39.077 9.3 23 17.2 100180 92
2006-08-17 07:58:51 51°19.636 2°39.049 9 34 17.2 100180 92
2006-08-17 07:58:55 51°19.642 2°39.03 8.6 21 17.2 100170 92
2006-08-17 07:59:01 51°19.653 2°39.003 8.9 300 17.2 100170 92
2006-08-17 07:59:06 51°19.661 2°38.98 8.1 26 17.2 100180 92
2006-08-17 07:59:11 51°19.67 2°38.958 8.4 304 17.2 100180 92
2006-08-17 07:59:16 51°19.68 2°38.935 8.2 21 17.2 100180 92
2006-08-17 07:59:21 51°19.689 2°38.913 8.7 304 17.2 100180 92
2006-08-17 07:59:26 51°19.698 2°38.89 8.3 28 17.2 100190 92
2006-08-17 07:59:31 51°19.708 2°38.868 8.5 304 17.2 100190 92
2006-08-17 07:59:36 51°19.718 2°38.846 8.8 29 17.2 100190 92
2006-08-17 07:59:41 51°19.727 2°38.823 8.6 304 17.2 100190 92
2006-08-17 07:59:46 51°19.736 2°38.801 8 27 17.2 100180 91
2006-08-17 07:59:51 51°19.745 2°38.778 8 303 17.2 100180 91
2006-08-17 07:59:56 51°19.753 2°38.755 8.4 27 17.2 100190 91
2006-08-17 08:00:01 51°19.761 2°38.732 8.5 307 17.2 100190 91
2006-08-17 08:00:05 51°19.767 2°38.713 8.4 25 17.2 100190 91
2006-08-17 08:00:09 51°19.772 2°38.694 8.2 304 17.2 100190 91
2006-08-17 08:00:16 51°19.781 2°38.661 7.8 28 17.2 100190 91
2006-08-17 08:00:21 51°19.788 2°38.636 8.3 302 17.2 100190 91
2006-08-17 08:00:26 51°19.794 2°38.612 8.7 28 17.2 100190 91
2006-08-17 08:00:31 51°19.8 2°38.587 8.6 303 17.2 100190 91
2006-08-17 08:00:36 51°19.805 2°38.562 8.1 316 17.3 100190 91
2006-08-17 08:00:41 51°19.81 2°38.538 9.1 304 17.3 100190 91
2006-08-17 08:00:45 51°19.815 2°38.518 8.8 316 17.3 100180 91
2006-08-17 08:00:51 51°19.821 2°38.488 8.8 307 17.3 100180 91
2006-08-17 08:00:56 51°19.826 2°38.463 9.1 317 17.3 100180 91
2006-08-17 08:01:01 51°19.831 2°38.438 9.2 302 17.3 100180 91
2006-08-17 08:01:06 51°19.836 2°38.413 8.9 27 17.3 100180 91
2006-08-17 08:01:11 51°19.842 2°38.388 8.5 283 17.3 100180 91
2006-08-17 08:01:16 51°19.847 2°38.363 8.6 315 17.3 100190 91
2006-08-17 08:01:21 51°19.853 2°38.339 8.4 305 17.3 100190 91
2006-08-17 08:01:26 51°19.86 2°38.314 8.5 26 17.3 100180 91
2006-08-17 08:01:31 51°19.866 2°38.29 8.6 308 17.3 100180 91
2006-08-17 08:01:36 51°19.873 2°38.266 9 317 17.3 100180 91
2006-08-17 08:01:41 51°19.88 2°38.242 9.5 302 17.3 100180 91
2006-08-17 08:01:46 51°19.886 2°38.218 9.4 318 17.3 100180 91
2006-08-17 08:01:51 51°19.892 2°38.194 8.9 301 17.3 100180 91
2006-08-17 08:01:55 51°19.896 2°38.174 9 316 17.3 100180 91
2006-08-17 08:02:01 51°19.903 2°38.145 8.3 39 17.3 100180 91
2006-08-17 08:02:06 51°19.908 2°38.121 9.3 316 17.3 100180 91
2006-08-17 08:02:11 51°19.912 2°38.096 8.9 302 17.3 100180 91
2006-08-17 08:02:16 51°19.917 2°38.071 8.8 317 17.3 100180 91
2006-08-17 08:02:21 51°19.921 2°38.047 9 315 17.3 100180 91
2006-08-17 08:02:25 51°19.925 2°38.027 9.6 315 17.3 100180 90
2006-08-17 08:02:31 51°19.93 2°37.998 8.8 306 17.3 100180 90
2006-08-17 08:02:36 51°19.934 2°37.973 9.2 25 17.3 100180 91
2006-08-17 08:02:41 51°19.939 2°37.948 8.1 306 17.3 100180 91
2006-08-17 08:02:45 51°19.943 2°37.929 8 315 17.3 100180 91
2006-08-17 08:02:51 51°19.949 2°37.899 7.8 304 17.3 100180 91
2006-08-17 08:02:56 51°19.954 2°37.875 9 25 17.3 100180 90
2006-08-17 08:03:01 51°19.959 2°37.851 7.8 308 17.3 100180 90
2006-08-17 08:03:06 51°19.965 2°37.826 8.1 315 17.3 100190 90
2006-08-17 08:03:11 51°19.971 2°37.803 8.1 278 17.3 100190 90
2006-08-17 08:03:16 51°19.977 2°37.78 8.5 316 17.3 100180 90
2006-08-17 08:03:21 51°19.982 2°37.757 8.5 301 17.3 100180 90
2006-08-17 08:03:26 51°19.988 2°37.734 8.3 24 17.3 100180 91
2006-08-17 08:03:29 51°19.991 2°37.721 8.7 304 17.3 100180 91
2006-08-17 08:03:36 51°19.998 2°37.689 8.4 23 17.3 100180 91
2006-08-17 08:03:41 51°20.003 2°37.667 8.6 308 17.3 100180 91
2006-08-17 08:03:46 51°20.009 2°37.645 8.2 25 17.3 100180 90
2006-08-17 08:03:51 51°20.014 2°37.623 7.8 305 17.3 100180 90
2006-08-17 08:03:56 51°20.018 2°37.602 8.2 23 17.3 100180 90
2006-08-17 08:04:01 51°20.023 2°37.582 7.7 307 17.3 100180 90
2006-08-17 08:04:06 51°20.028 2°37.562 7.7 21 17.2 100180 90
2006-08-17 08:04:11 51°20.032 2°37.542 8.3 304 17.2 100180 90
2006-08-17 08:04:16 51°20.035 2°37.523 7.9 25 17.2 100180 90
2006-08-17 08:04:21 51°20.039 2°37.504 7.7 306 17.2 100180 90
2006-08-17 08:04:26 51°20.042 2°37.485 7.9 316 17.3 100180 90
2006-08-17 08:04:29 51°20.044 2°37.474 7.9 302 17.3 100180 90
2006-08-17 08:04:35 51°20.047 2°37.454 7.8 24 17.3 100190 90
2006-08-17 08:04:41 51°20.05 2°37.435 6.8 36 17.3 100190 90
2006-08-17 08:04:46 51°20.052 2°37.421 7.5 27 17.3 100180 90
2006-08-17 08:04:51 51°20.053 2°37.408 6.8 303 17.3 100180 90
2006-08-17 08:04:56 51°20.054 2°37.396 6.9 20 17.3 100190 90
2006-08-17 08:05:01 51°20.055 2°37.384 6.3 302 17.3 100190 90
2006-08-17 08:05:06 51°20.055 2°37.373 6 25 17.3 100190 90
2006-08-17 08:05:11 51°20.056 2°37.363 6.1 281 17.3 100190 90
2006-08-17 08:05:16 51°20.057 2°37.353 6.1 24 17.3 100190 89
2006-08-17 08:05:21 51°20.058 2°37.343 6.5 302 17.3 100190 89
2006-08-17 08:05:25 51°20.059 2°37.336 5.9 23 17.3 100190 90
2006-08-17 08:05:31 51°20.06 2°37.326 6.2 302 17.3 100190 90
2006-08-17 08:05:36 51°20.062 2°37.318 5.9 28 17.3 100190 90
2006-08-17 08:05:41 51°20.063 2°37.31 6.1 302 17.3 100190 90
2006-08-17 08:05:46 51°20.065 2°37.302 5.7 24 17.3 100190 90
2006-08-17 08:05:51 51°20.067 2°37.293 6.4 301 17.3 100190 90
2006-08-17 08:05:56 51°20.069 2°37.285 6 22 17.3 100190 90
2006-08-17 08:06:01 51°20.07 2°37.277 6 301 17.3 100190 90
2006-08-17 08:06:05 51°20.072 2°37.271 6.3 20 17.3 100190 90
2006-08-17 08:06:11 51°20.074 2°37.262 5.6 307 17.3 100190 90
2006-08-17 08:06:16 51°20.076 2°37.254 6.2 27 17.3 100190 90
2006-08-17 08:06:21 51°20.078 2°37.246 6 302 17.3 100190 90
2006-08-17 08:06:25 51°20.079 2°37.24 6.2 27 17.3 100190 89
2006-08-17 08:06:31 51°20.081 2°37.23 5.6 306 17.3 100190 89
2006-08-17 08:06:36 51°20.083 2°37.223 5.3 22 17.3 100190 89
2006-08-17 08:06:41 51°20.084 2°37.215 5.5 306 17.3 100190 89
2006-08-17 08:06:46 51°20.086 2°37.207 6.1 27 17.3 100190 89
2006-08-17 08:06:51 51°20.087 2°37.2 5.9 301 17.3 100190 89
2006-08-17 08:06:55 51°20.088 2°37.193 6.7 25 17.3 100190 89
2006-08-17 08:07:01 51°20.089 2°37.184 6.5 305 17.3 100190 89
2006-08-17 08:07:06 51°20.09 2°37.176 6.4 23 17.3 100200 89
2006-08-17 08:07:11 51°20.09 2°37.169 6.2 303 17.3 100200 89
2006-08-17 08:07:15 51°20.09 2°37.164 5.7 29 17.3 100190 89
2006-08-17 08:07:21 51°20.09 2°37.158 5.9 303 17.3 100190 89
2006-08-17 08:07:25 51°20.09 2°37.154 6.1 22 17.3 100190 90
2006-08-17 08:07:31 51°20.09 2°37.15 5.4 308 17.3 100190 90
2006-08-17 08:07:36 51°20.09 2°37.147 5.2 26 17.3 100190 90
2006-08-17 08:07:41 51°20.091 2°37.146 5.3 306 17.3 100190 90
2006-08-17 08:07:46 51°20.091 2°37.144 4.8 28 17.3 100190 89
2006-08-17 08:07:51 51°20.092 2°37.144 4.9 302 17.3 100190 89
2006-08-17 08:07:56 51°20.092 2°37.144 4.4 318 17.3 100200 89
2006-08-17 08:08:01 51°20.093 2°37.144 4.6 307 17.3 100200 89
2006-08-17 08:08:06 51°20.094 2°37.145 4.4 317 17.3 100200 89